createdAt,value
2018-12-03T00:01:01.576Z,11.2
2018-12-03T00:06:01.251Z,9.8
2018-12-03T00:11:01.250Z,9.4
2018-12-03T00:16:01.254Z,9.8
2018-12-03T00:21:01.251Z,10.1
2018-12-03T00:26:01.290Z,10.2
2018-12-03T00:31:01.255Z,11.2
2018-12-03T00:36:01.257Z,11.6
2018-12-03T00:41:01.326Z,11.7
2018-12-03T00:46:01.241Z,11.0
2018-12-03T00:51:01.298Z,10.8
2018-12-03T00:56:01.243Z,9.5
2018-12-03T01:01:06.251Z,9.5
2018-12-03T01:06:01.238Z,9.6
2018-12-03T01:11:01.237Z,10.1
2018-12-03T01:16:01.724Z,10.3
2018-12-03T01:21:01.247Z,11.4
2018-12-03T01:26:01.246Z,11.4
2018-12-03T01:31:01.246Z,11.6
2018-12-03T01:36:01.246Z,11.8
2018-12-03T01:41:01.254Z,12.2
2018-12-03T01:46:01.253Z,12.2
2018-12-03T01:51:01.318Z,12.6
2018-12-03T01:56:01.258Z,13.0
2018-12-03T02:01:01.258Z,13.9
2018-12-03T02:06:02.282Z,14.4
2018-12-03T02:11:06.248Z,14.6
2018-12-03T02:16:01.246Z,14.9
2018-12-03T02:21:01.241Z,14.6
2018-12-03T02:26:01.275Z,13.8
2018-12-03T02:31:01.243Z,14.2
2018-12-03T02:36:01.253Z,14.2
2018-12-03T02:41:01.291Z,14.5
2018-12-03T02:46:02.376Z,16.1
2018-12-03T02:51:01.296Z,16.8
2018-12-03T02:56:01.257Z,16.6
2018-12-03T03:01:01.256Z,16.8
2018-12-03T03:06:01.258Z,17.6
2018-12-03T03:16:01.255Z,18.2
2018-12-03T03:21:01.289Z,18.0
2018-12-03T03:26:02.018Z,18.6
2018-12-03T03:31:01.244Z,17.4
2018-12-03T03:36:01.246Z,16.6
2018-12-03T03:41:01.249Z,16.2
2018-12-03T03:51:01.241Z,15.7
2018-12-03T03:56:01.247Z,16.2
2018-12-03T04:06:01.247Z,16.5
2018-12-03T04:11:01.249Z,16.3
2018-12-03T04:16:01.254Z,15.9
2018-12-03T04:21:02.326Z,15.4
2018-12-03T04:26:01.323Z,14.8
2018-12-03T04:31:01.265Z,13.4
2018-12-03T04:36:01.288Z,12.4
2018-12-03T04:41:01.227Z,12.6
2018-12-03T04:46:06.257Z,12.0
2018-12-03T04:51:01.272Z,12.4
2018-12-03T04:56:06.455Z,13.0
2018-12-03T05:01:01.253Z,13.8
2018-12-03T05:06:01.447Z,13.1
2018-12-03T05:11:01.318Z,13.6
2018-12-03T05:16:01.249Z,13.2
2018-12-03T05:31:01.300Z,13.6
2018-12-03T05:36:01.243Z,14.0
2018-12-03T05:41:01.256Z,14.2
2018-12-03T05:46:01.266Z,15.2
2018-12-03T05:51:06.263Z,15.3
2018-12-03T05:56:01.362Z,14.7
2018-12-03T06:01:06.328Z,14.3
2018-12-03T06:06:01.268Z,13.6
2018-12-03T06:11:06.257Z,12.9
2018-12-03T06:16:01.280Z,12.8
2018-12-03T06:21:06.259Z,13.0
2018-12-03T06:26:01.252Z,13.3
2018-12-03T06:31:01.258Z,14.7
2018-12-03T06:36:02.210Z,15.6
2018-12-03T06:41:01.261Z,16.8
2018-12-03T06:46:01.258Z,17.5
2018-12-03T06:51:01.241Z,17.6
2018-12-03T06:56:01.241Z,17.1
2018-12-03T07:01:01.242Z,16.6
2018-12-03T07:06:01.239Z,15.8
2018-12-03T07:11:01.244Z,15.3
2018-12-03T07:16:01.249Z,14.9
2018-12-03T07:21:01.241Z,14.4
2018-12-03T07:26:01.244Z,14.0
2018-12-03T07:31:01.244Z,13.9
2018-12-03T07:36:01.246Z,13.4
2018-12-03T07:41:01.313Z,13.2
2018-12-03T07:46:01.254Z,13.1
2018-12-03T07:51:01.255Z,12.4
2018-12-03T07:56:01.252Z,12.0
2018-12-03T08:01:01.247Z,11.0
2018-12-03T08:06:01.250Z,10.5
2018-12-03T08:11:01.239Z,9.8
2018-12-03T08:16:01.248Z,10.0
2018-12-03T08:21:01.241Z,10.3
2018-12-03T08:26:01.244Z,11.6
2018-12-03T08:31:01.246Z,12.4
2018-12-03T08:36:01.246Z,12.0
2018-12-03T08:41:01.258Z,11.8
2018-12-03T08:46:01.238Z,10.7
2018-12-03T08:51:02.600Z,10.1
2018-12-03T08:56:01.261Z,9.0
2018-12-03T09:01:01.252Z,9.2
2018-12-03T09:15:01.139Z,9.8
2018-12-03T09:20:01.132Z,8.8
2018-12-03T09:25:01.134Z,9.5
2018-12-03T09:30:01.413Z,9.2
2018-12-03T09:35:02.463Z,9.5
2018-12-03T09:40:01.135Z,9.3
2018-12-03T09:45:01.132Z,9.0
2018-12-03T09:50:01.135Z,8.7
2018-12-03T09:55:01.137Z,9.0
2018-12-03T10:00:01.128Z,8.4
2018-12-03T10:05:02.428Z,8.3
2018-12-03T10:10:01.145Z,9.2
2018-12-03T10:15:01.139Z,9.2
2018-12-03T10:20:01.142Z,9.0
2018-12-03T10:25:01.143Z,9.0
2018-12-03T10:30:01.151Z,8.9
2018-12-03T10:35:01.141Z,8.5
2018-12-03T10:40:01.144Z,8.5
2018-12-03T10:45:01.146Z,8.8
2018-12-03T10:50:01.149Z,9.2
2018-12-03T10:55:01.178Z,10.2
2018-12-03T11:00:01.152Z,10.0
2018-12-03T11:05:01.155Z,10.4
2018-12-03T11:10:01.149Z,10.7
2018-12-03T11:15:01.154Z,10.6
2018-12-03T11:20:01.160Z,9.8
2018-12-03T11:25:01.153Z,10.4
2018-12-03T11:30:01.161Z,10.2
2018-12-03T11:35:06.130Z,9.9
2018-12-03T11:40:01.154Z,9.8
2018-12-03T11:45:01.158Z,10.1
2018-12-03T11:50:01.161Z,9.3
2018-12-03T11:55:01.161Z,9.2
2018-12-03T12:00:01.256Z,9.6
2018-12-03T12:05:01.173Z,9.5
2018-12-03T12:10:01.161Z,9.6
2018-12-03T12:15:01.184Z,9.8
2018-12-03T12:25:01.229Z,9.4
2018-12-03T12:30:01.176Z,9.4
2018-12-03T12:35:01.173Z,9.5
2018-12-03T12:40:01.166Z,9.2
2018-12-03T12:45:01.234Z,9.8
2018-12-03T12:50:01.235Z,9.5
2018-12-03T12:55:01.176Z,9.4
2018-12-03T13:00:02.204Z,9.4
2018-12-03T13:05:01.176Z,9.5
2018-12-03T13:10:01.172Z,8.6
2018-12-03T13:15:01.194Z,9.6
2018-12-03T13:20:01.186Z,9.7
2018-12-03T13:25:01.200Z,9.2
2018-12-03T13:30:01.186Z,10.8
2018-12-03T13:40:01.182Z,10.5
2018-12-03T13:45:01.193Z,11.0
2018-12-03T13:50:01.187Z,11.0
2018-12-03T13:55:01.743Z,9.5
2018-12-03T14:00:01.188Z,9.7
2018-12-03T14:05:01.192Z,9.8
2018-12-03T14:10:01.151Z,9.7
2018-12-03T14:15:01.199Z,10.7
2018-12-03T14:20:01.387Z,11.6
2018-12-03T14:25:01.379Z,11.7
2018-12-03T14:30:01.161Z,12.0
2018-12-03T14:35:01.194Z,11.9
2018-12-03T14:40:01.196Z,12.2
2018-12-03T14:45:01.203Z,12.0
2018-12-03T14:50:01.200Z,11.7
2018-12-03T14:55:01.292Z,11.4
2018-12-03T15:00:01.334Z,11.1
2018-12-03T15:05:01.229Z,10.4
2018-12-03T15:10:01.209Z,10.7
2018-12-03T15:15:01.203Z,11.2
2018-12-03T15:20:01.193Z,11.0
2018-12-03T15:25:01.202Z,10.7
2018-12-03T15:30:01.209Z,9.7
2018-12-03T15:35:01.271Z,9.4
2018-12-03T15:40:01.209Z,8.7
2018-12-03T15:45:01.217Z,9.1
2018-12-03T15:50:01.538Z,9.7
2018-12-03T15:55:01.210Z,11.1
2018-12-03T16:00:01.220Z,10.9
2018-12-03T16:05:01.209Z,10.8
2018-12-03T16:10:01.297Z,9.9
2018-12-03T16:15:02.094Z,8.8
2018-12-03T16:20:01.216Z,8.0
2018-12-03T16:25:01.280Z,7.4
2018-12-03T16:30:01.217Z,6.7
2018-12-03T16:35:01.217Z,6.3
2018-12-03T16:40:01.433Z,6.2
2018-12-03T16:45:01.284Z,5.2
2018-12-03T16:50:01.249Z,4.9
2018-12-03T16:55:01.238Z,5.9
2018-12-03T17:00:01.255Z,6.3
2018-12-03T17:05:01.227Z,6.9
2018-12-03T17:10:01.244Z,7.2
2018-12-03T17:15:01.232Z,7.7
2018-12-03T17:20:01.236Z,7.3
2018-12-03T17:25:01.236Z,7.6
2018-12-03T17:30:01.206Z,7.1
2018-12-03T17:35:01.237Z,7.1
2018-12-03T17:40:01.238Z,7.1
2018-12-03T17:45:01.239Z,6.7
2018-12-03T17:50:01.238Z,6.0
2018-12-03T18:00:01.593Z,5.8
2018-12-03T18:05:01.246Z,5.3
2018-12-03T18:10:01.246Z,5.1
2018-12-03T18:15:01.307Z,5.1
2018-12-03T18:20:01.250Z,5.3
2018-12-03T18:25:01.242Z,5.8
2018-12-03T18:30:06.258Z,6.0
2018-12-03T18:35:01.244Z,6.4
2018-12-03T18:40:01.249Z,6.8
2018-12-03T18:45:01.253Z,6.9
2018-12-03T18:50:01.275Z,8.0
2018-12-03T18:55:02.261Z,9.1
2018-12-03T19:00:01.255Z,8.9
2018-12-03T19:05:01.262Z,10.2
2018-12-03T19:10:01.241Z,9.9
2018-12-03T19:15:01.238Z,8.9
2018-12-03T19:20:01.248Z,7.6
2018-12-03T19:25:06.259Z,7.6
2018-12-03T19:30:01.533Z,5.7
2018-12-03T19:35:01.356Z,5.4
2018-12-03T19:40:01.278Z,5.1
2018-12-03T19:45:01.247Z,5.1
2018-12-03T19:50:01.284Z,5.1
2018-12-03T19:55:01.279Z,5.4
2018-12-03T20:00:01.505Z,5.4
2018-12-03T20:05:01.286Z,5.0
2018-12-03T20:15:01.388Z,4.6
2018-12-03T20:25:01.656Z,4.2
2018-12-03T20:30:02.043Z,4.3
2018-12-03T20:35:01.242Z,4.0
2018-12-03T20:40:01.240Z,3.6
2018-12-03T20:45:06.259Z,3.6
2018-12-03T20:50:06.265Z,3.8
2018-12-03T20:55:01.280Z,3.8
2018-12-03T21:00:06.250Z,4.0
2018-12-03T21:05:01.250Z,4.0
2018-12-03T21:10:06.268Z,3.4
2018-12-03T21:15:06.261Z,3.3
2018-12-03T21:20:06.443Z,2.9
2018-12-03T21:25:01.275Z,2.8
2018-12-03T21:30:06.251Z,2.9
2018-12-03T21:35:01.239Z,3.0
2018-12-03T21:40:07.277Z,3.2
2018-12-03T21:45:06.247Z,3.5
2018-12-03T21:50:07.198Z,3.3
2018-12-03T21:55:01.330Z,3.4
2018-12-03T22:00:01.285Z,3.9
2018-12-03T22:05:01.278Z,3.8
2018-12-03T22:10:01.275Z,3.8
2018-12-03T22:15:06.260Z,3.8
2018-12-03T22:25:01.247Z,3.2
2018-12-03T22:30:01.248Z,3.2
2018-12-03T22:35:01.255Z,2.9
2018-12-03T22:40:01.254Z,3.0
2018-12-03T22:45:01.292Z,3.0
2018-12-03T22:50:01.251Z,3.0
2018-12-03T22:55:01.244Z,2.7
2018-12-03T23:00:01.246Z,2.8
2018-12-03T23:10:01.243Z,2.4
2018-12-03T23:15:01.253Z,3.0
2018-12-03T23:20:01.241Z,3.2
2018-12-03T23:25:01.241Z,3.1
2018-12-03T23:30:01.259Z,2.9
2018-12-03T23:40:01.254Z,2.3
2018-12-03T23:45:01.254Z,2.3
2018-12-03T23:50:01.237Z,2.4
2018-12-03T23:55:01.249Z,2.6
